Flippin, AR

5:37 AM CST on February 22, 2017 (GMT -0600)
Marion County Regional | | Change Station
Active Advisory: Dense Fog Advisory

Elev 719 ft 36.29 °N, 92.59 °W | Updated 2 minutes ago

Overcast
Overcast
54 °F
Feels Like 54 °F
N
0
Wind Variable Wind from North

Today
High -- | Low -- °F
--% Chance of Precip.
Yesterday
High -- | Low -- °F
Precip. -- in
Pressure 29.89 in
Visibility 0.2 miles
Clouds Overcast 100 ft
Dew Point 48 °F
Humidity 82%
Rainfall 0.00 in
Snow Depth Not available.
6:49 AM 5:58 PM
Waning Crescent, 18% visible
METAR KFLP 221135Z 00000KT 1/4SM OVC001 12/09 A2989 RMK AO1
Pressure 29.89 in
Visibility 0.2 miles
Clouds Overcast 100 ft
Dew Point 48 °F
Humidity 82%
Rainfall 0.00 in
Snow Depth Not available.
6:49 AM 5:58 PM
Waning Crescent, 18% visible
METAR KFLP 221135Z 00000KT 1/4SM OVC001 12/09 A2989 RMK AO1

Get Your Daily Forecast Email!

Thanks for signing up!

Be on the lookout for a verification email in your inbox.

You'll start receiving the daily forecast at 8 AM.

×

10-Day Weather Forecast

Almanac

Astronomy

Feb. 22, 2017 Rise Set
Actual Time
Civil Twilight
Nautical Twilight
Astronomical Twilight
Moon
Length of Visible Light
Length of Day
Tomorrow will be .
, % of the Moon is Illuminated

Today's Extremes

State Highs State Lows

Community

WunderPhotos

Upload Photos

1,962,540 photos uploaded!

WunderBlog® & News

Nearby

Air Quality

  Air Quality AQ Index Pollutant
Not available.

Snow Depth

Station Depth Elevation

Earthquake Activity

City Distance Mag. Time & Date
Minimum magnitude displayed is 2.5.

Coastal Water Temperatures

Place Temperature

Stations

Nearby Weather Stations

Station Location Temp. Windchill Dew Point Humidity Wind Precip. Elev Updated Type
                   

Watches & Warnings

Dense Fog Advisory
Issued: 3:32 AM CST Feb. 22, 2017 – National Weather Service

... Dense fog advisory remains in effect until 8 am CST this
morning...

* event... dense fog.

* Areas affected... much of central and northern Arkansas.

* Visibility... at times, less than one quarter mile.

* Impacts... reduced visibility will create hazardous driving
conditions.

Precautionary/preparedness actions...

A dense fog advisory means visibilities will frequently be
reduced to less than one quarter mile. If driving... slow down...
use your headlights... and leave plenty of distance ahead of you.



57